sensor_id;sensor_type;location;lat;lon;timestamp;temperature;humidity
13697;DHT22;6920;50.080;8.226;2022-10-31T00:01:29;11.80;99.90
13697;DHT22;6920;50.080;8.226;2022-10-31T00:03:57;11.70;99.90
13697;DHT22;6920;50.080;8.226;2022-10-31T00:06:26;11.70;99.90
13697;DHT22;6920;50.080;8.226;2022-10-31T00:08:55;11.60;99.90
13697;DHT22;6920;50.080;8.226;2022-10-31T00:11:24;11.70;99.90
13697;DHT22;6920;50.080;8.226;2022-10-31T00:13:51;11.70;99.90
13697;DHT22;6920;50.080;8.226;2022-10-31T00:16:20;11.70;99.90
13697;DHT22;6920;50.080;8.226;2022-10-31T00:18:54;11.60;99.90
13697;DHT22;6920;50.080;8.226;2022-10-31T00:21:25;11.60;99.90
13697;DHT22;6920;50.080;8.226;2022-10-31T00:23:53;11.60;99.90
13697;DHT22;6920;50.080;8.226;2022-10-31T00:26:21;11.60;99.90
13697;DHT22;6920;50.080;8.226;2022-10-31T00:28:50;11.60;99.90
13697;DHT22;6920;50.080;8.226;2022-10-31T00:31:17;11.60;99.90
13697;DHT22;6920;50.080;8.226;2022-10-31T00:33:48;11.60;99.90
13697;DHT22;6920;50.080;8.226;2022-10-31T00:36:17;11.60;99.90
13697;DHT22;6920;50.080;8.226;2022-10-31T00:38:47;11.50;99.90
13697;DHT22;6920;50.080;8.226;2022-10-31T00:41:16;11.50;99.90
13697;DHT22;6920;50.080;8.226;2022-10-31T00:43:44;11.50;99.90
13697;DHT22;6920;50.080;8.226;2022-10-31T00:46:12;11.50;99.90
13697;DHT22;6920;50.080;8.226;2022-10-31T00:48:39;11.50;99.90
13697;DHT22;6920;50.080;8.226;2022-10-31T00:51:09;11.60;99.90
13697;DHT22;6920;50.080;8.226;2022-10-31T00:53:38;11.60;99.90
13697;DHT22;6920;50.080;8.226;2022-10-31T00:56:07;11.60;99.90
13697;DHT22;6920;50.080;8.226;2022-10-31T00:58:34;11.50;99.90
13697;DHT22;6920;50.080;8.226;2022-10-31T01:01:01;11.60;99.90
13697;DHT22;6920;50.080;8.226;2022-10-31T01:03:32;11.60;99.90
13697;DHT22;6920;50.080;8.226;2022-10-31T01:06:01;11.60;99.90
13697;DHT22;6920;50.080;8.226;2022-10-31T01:08:33;11.60;99.90
13697;DHT22;6920;50.080;8.226;2022-10-31T01:11:03;11.70;99.90
13697;DHT22;6920;50.080;8.226;2022-10-31T01:13:35;11.70;99.90
13697;DHT22;6920;50.080;8.226;2022-10-31T01:16:04;11.70;99.90
13697;DHT22;6920;50.080;8.226;2022-10-31T01:18:32;11.70;99.90
13697;DHT22;6920;50.080;8.226;2022-10-31T01:21:02;11.60;99.90
13697;DHT22;6920;50.080;8.226;2022-10-31T01:23:33;11.60;99.90
13697;DHT22;6920;50.080;8.226;2022-10-31T01:26:09;11.60;99.90
13697;DHT22;6920;50.080;8.226;2022-10-31T01:28:38;11.60;99.90
13697;DHT22;6920;50.080;8.226;2022-10-31T01:31:07;11.50;99.90
13697;DHT22;6920;50.080;8.226;2022-10-31T01:33:35;11.60;99.90
13697;DHT22;6920;50.080;8.226;2022-10-31T01:36:13;11.50;99.90
13697;DHT22;6920;50.080;8.226;2022-10-31T01:38:42;11.50;99.90
13697;DHT22;6920;50.080;8.226;2022-10-31T01:41:11;11.50;99.90
13697;DHT22;6920;50.080;8.226;2022-10-31T01:43:50;11.50;99.90
13697;DHT22;6920;50.080;8.226;2022-10-31T01:46:22;11.50;99.90
13697;DHT22;6920;50.080;8.226;2022-10-31T01:48:53;11.50;99.90
13697;DHT22;6920;50.080;8.226;2022-10-31T01:51:55;11.50;99.90
13697;DHT22;6920;50.080;8.226;2022-10-31T01:58:11;11.50;99.90
13697;DHT22;6920;50.080;8.226;2022-10-31T02:00:51;11.50;99.90
13697;DHT22;6920;50.080;8.226;2022-10-31T02:03:23;11.50;99.90
13697;DHT22;6920;50.080;8.226;2022-10-31T02:05:53;11.50;99.90
13697;DHT22;6920;50.080;8.226;2022-10-31T02:08:28;11.50;99.90
13697;DHT22;6920;50.080;8.226;2022-10-31T02:10:57;11.40;99.90
13697;DHT22;6920;50.080;8.226;2022-10-31T02:13:28;11.40;99.90
13697;DHT22;6920;50.080;8.226;2022-10-31T02:15:57;11.50;99.90
13697;DHT22;6920;50.080;8.226;2022-10-31T02:18:27;11.40;99.90
13697;DHT22;6920;50.080;8.226;2022-10-31T02:21:02;11.50;99.90
13697;DHT22;6920;50.080;8.226;2022-10-31T02:23:53;11.60;99.90
13697;DHT22;6920;50.080;8.226;2022-10-31T02:26:57;11.60;99.90
13697;DHT22;6920;50.080;8.226;2022-10-31T02:29:48;11.50;99.90
13697;DHT22;6920;50.080;8.226;2022-10-31T02:32:27;11.60;99.90
13697;DHT22;6920;50.080;8.226;2022-10-31T02:35:03;11.50;99.90
13697;DHT22;6920;50.080;8.226;2022-10-31T02:37:34;11.40;99.90
13697;DHT22;6920;50.080;8.226;2022-10-31T02:40:17;11.40;99.90
13697;DHT22;6920;50.080;8.226;2022-10-31T02:42:50;11.40;99.90
13697;DHT22;6920;50.080;8.226;2022-10-31T02:45:28;11.40;99.90
13697;DHT22;6920;50.080;8.226;2022-10-31T02:48:01;11.40;99.90
13697;DHT22;6920;50.080;8.226;2022-10-31T02:50:32;11.30;99.90
13697;DHT22;6920;50.080;8.226;2022-10-31T02:53:01;11.30;99.90
13697;DHT22;6920;50.080;8.226;2022-10-31T02:55:53;11.30;99.90
13697;DHT22;6920;50.080;8.226;2022-10-31T02:58:26;11.50;99.90
13697;DHT22;6920;50.080;8.226;2022-10-31T03:01:06;11.60;99.90
13697;DHT22;6920;50.080;8.226;2022-10-31T03:03:41;11.50;99.90
13697;DHT22;6920;50.080;8.226;2022-10-31T03:06:16;11.50;99.90
13697;DHT22;6920;50.080;8.226;2022-10-31T03:08:50;11.50;99.90
13697;DHT22;6920;50.080;8.226;2022-10-31T03:11:24;11.50;99.90
13697;DHT22;6920;50.080;8.226;2022-10-31T03:14:00;11.40;99.90
13697;DHT22;6920;50.080;8.226;2022-10-31T03:16:32;11.40;99.90
13697;DHT22;6920;50.080;8.226;2022-10-31T03:19:07;11.40;99.90
13697;DHT22;6920;50.080;8.226;2022-10-31T03:21:39;11.30;99.90
13697;DHT22;6920;50.080;8.226;2022-10-31T03:24:16;11.40;99.90
13697;DHT22;6920;50.080;8.226;2022-10-31T03:26:49;11.20;99.90
13697;DHT22;6920;50.080;8.226;2022-10-31T03:29:22;11.10;99.90
13697;DHT22;6920;50.080;8.226;2022-10-31T03:31:55;11.10;99.90
13697;DHT22;6920;50.080;8.226;2022-10-31T03:34:25;11.10;99.90
13697;DHT22;6920;50.080;8.226;2022-10-31T03:37:00;11.20;99.90
13697;DHT22;6920;50.080;8.226;2022-10-31T03:39:29;11.20;99.90
13697;DHT22;6920;50.080;8.226;2022-10-31T03:42:02;11.20;99.90
13697;DHT22;6920;50.080;8.226;2022-10-31T03:44:32;11.20;99.90
13697;DHT22;6920;50.080;8.226;2022-10-31T03:47:02;11.30;99.90
13697;DHT22;6920;50.080;8.226;2022-10-31T03:49:32;11.30;99.90
13697;DHT22;6920;50.080;8.226;2022-10-31T03:52:12;11.30;99.90
13697;DHT22;6920;50.080;8.226;2022-10-31T03:54:43;11.50;99.90
13697;DHT22;6920;50.080;8.226;2022-10-31T03:57:16;11.40;99.90
13697;DHT22;6920;50.080;8.226;2022-10-31T03:59:51;11.40;99.90
13697;DHT22;6920;50.080;8.226;2022-10-31T04:02:22;11.40;99.90
13697;DHT22;6920;50.080;8.226;2022-10-31T04:04:54;11.50;99.90
13697;DHT22;6920;50.080;8.226;2022-10-31T04:07:23;11.50;99.90
13697;DHT22;6920;50.080;8.226;2022-10-31T04:09:55;11.50;99.90
13697;DHT22;6920;50.080;8.226;2022-10-31T04:12:24;11.50;99.90
13697;DHT22;6920;50.080;8.226;2022-10-31T04:14:55;11.30;99.90
13697;DHT22;6920;50.080;8.226;2022-10-31T04:17:28;11.30;99.90
13697;DHT22;6920;50.080;8.226;2022-10-31T04:20:00;11.20;99.90
13697;DHT22;6920;50.080;8.226;2022-10-31T04:22:28;11.10;99.90
13697;DHT22;6920;50.080;8.226;2022-10-31T04:24:57;11.10;99.90
13697;DHT22;6920;50.080;8.226;2022-10-31T04:27:24;11.20;99.90
13697;DHT22;6920;50.080;8.226;2022-10-31T04:29:52;11.20;99.90
13697;DHT22;6920;50.080;8.226;2022-10-31T04:32:19;11.20;99.90
13697;DHT22;6920;50.080;8.226;2022-10-31T04:34:47;11.10;99.90
13697;DHT22;6920;50.080;8.226;2022-10-31T04:37:15;11.10;99.90
13697;DHT22;6920;50.080;8.226;2022-10-31T04:39:43;11.10;99.90
13697;DHT22;6920;50.080;8.226;2022-10-31T04:42:12;11.10;99.90
13697;DHT22;6920;50.080;8.226;2022-10-31T04:44:41;11.00;99.90
13697;DHT22;6920;50.080;8.226;2022-10-31T04:47:10;11.10;99.90
13697;DHT22;6920;50.080;8.226;2022-10-31T04:49:39;11.10;99.90
13697;DHT22;6920;50.080;8.226;2022-10-31T04:52:07;11.20;99.90
13697;DHT22;6920;50.080;8.226;2022-10-31T04:54:37;11.20;99.90
13697;DHT22;6920;50.080;8.226;2022-10-31T05:02:02;11.30;99.90
13697;DHT22;6920;50.080;8.226;2022-10-31T05:04:31;11.40;99.90
13697;DHT22;6920;50.080;8.226;2022-10-31T05:07:00;11.40;99.90
13697;DHT22;6920;50.080;8.226;2022-10-31T05:11:58;11.40;99.90
13697;DHT22;6920;50.080;8.226;2022-10-31T05:14:27;11.40;99.90
13697;DHT22;6920;50.080;8.226;2022-10-31T05:17:10;11.20;99.90
13697;DHT22;6920;50.080;8.226;2022-10-31T05:19:38;11.20;99.90
13697;DHT22;6920;50.080;8.226;2022-10-31T05:22:09;11.20;99.90
13697;DHT22;6920;50.080;8.226;2022-10-31T05:24:38;11.30;99.90
13697;DHT22;6920;50.080;8.226;2022-10-31T05:27:07;11.30;99.90
13697;DHT22;6920;50.080;8.226;2022-10-31T05:29:35;11.20;99.90
13697;DHT22;6920;50.080;8.226;2022-10-31T05:34:30;11.00;99.90
13697;DHT22;6920;50.080;8.226;2022-10-31T05:37:02;10.80;99.90
13697;DHT22;6920;50.080;8.226;2022-10-31T05:39:30;10.80;99.90
13697;DHT22;6920;50.080;8.226;2022-10-31T05:41:57;10.90;99.90
13697;DHT22;6920;50.080;8.226;2022-10-31T05:44:29;10.90;99.90
13697;DHT22;6920;50.080;8.226;2022-10-31T05:46:57;10.90;99.90
13697;DHT22;6920;50.080;8.226;2022-10-31T05:49:28;10.90;99.90
13697;DHT22;6920;50.080;8.226;2022-10-31T05:51:56;11.00;99.90
13697;DHT22;6920;50.080;8.226;2022-10-31T05:54:26;10.90;99.90
13697;DHT22;6920;50.080;8.226;2022-10-31T05:56:55;10.90;99.90
13697;DHT22;6920;50.080;8.226;2022-10-31T05:59:24;10.90;99.90
13697;DHT22;6920;50.080;8.226;2022-10-31T06:01:59;10.70;99.90
13697;DHT22;6920;50.080;8.226;2022-10-31T06:04:28;10.90;99.90
13697;DHT22;6920;50.080;8.226;2022-10-31T06:06:59;10.90;99.90
13697;DHT22;6920;50.080;8.226;2022-10-31T06:09:28;10.90;99.90
13697;DHT22;6920;50.080;8.226;2022-10-31T06:14:23;10.90;99.90
13697;DHT22;6920;50.080;8.226;2022-10-31T06:16:51;11.10;99.90
13697;DHT22;6920;50.080;8.226;2022-10-31T06:19:24;11.20;99.90
13697;DHT22;6920;50.080;8.226;2022-10-31T06:21:51;11.20;99.90
13697;DHT22;6920;50.080;8.226;2022-10-31T06:24:20;11.30;99.90
13697;DHT22;6920;50.080;8.226;2022-10-31T06:26:48;11.30;99.90
13697;DHT22;6920;50.080;8.226;2022-10-31T06:29:15;11.10;99.90
13697;DHT22;6920;50.080;8.226;2022-10-31T06:31:51;11.30;99.90
13697;DHT22;6920;50.080;8.226;2022-10-31T06:34:23;11.30;99.90
13697;DHT22;6920;50.080;8.226;2022-10-31T06:36:51;11.10;99.90
13697;DHT22;6920;50.080;8.226;2022-10-31T06:41:49;11.30;99.90
13697;DHT22;6920;50.080;8.226;2022-10-31T06:44:19;11.30;99.90
13697;DHT22;6920;50.080;8.226;2022-10-31T06:49:20;11.50;99.90
13697;DHT22;6920;50.080;8.226;2022-10-31T06:51:50;11.60;99.90
13697;DHT22;6920;50.080;8.226;2022-10-31T06:56:46;11.70;99.90
13697;DHT22;6920;50.080;8.226;2022-10-31T06:59:15;11.70;99.90
13697;DHT22;6920;50.080;8.226;2022-10-31T07:01:42;11.70;99.90
13697;DHT22;6920;50.080;8.226;2022-10-31T07:04:10;11.70;99.90
13697;DHT22;6920;50.080;8.226;2022-10-31T07:06:39;11.80;99.90
13697;DHT22;6920;50.080;8.226;2022-10-31T07:09:10;11.80;99.90
13697;DHT22;6920;50.080;8.226;2022-10-31T07:11:40;11.90;99.90
13697;DHT22;6920;50.080;8.226;2022-10-31T07:14:08;12.00;99.90
13697;DHT22;6920;50.080;8.226;2022-10-31T07:24:01;12.20;99.90
13697;DHT22;6920;50.080;8.226;2022-10-31T07:26:32;12.30;99.90
13697;DHT22;6920;50.080;8.226;2022-10-31T07:28:59;12.40;99.90
13697;DHT22;6920;50.080;8.226;2022-10-31T07:31:27;12.50;99.90
13697;DHT22;6920;50.080;8.226;2022-10-31T07:36:23;12.70;99.90
13697;DHT22;6920;50.080;8.226;2022-10-31T07:38:50;12.80;99.90
13697;DHT22;6920;50.080;8.226;2022-10-31T07:41:19;12.80;99.90
13697;DHT22;6920;50.080;8.226;2022-10-31T07:43:54;13.00;99.90
13697;DHT22;6920;50.080;8.226;2022-10-31T07:46:23;13.20;99.90
13697;DHT22;6920;50.080;8.226;2022-10-31T07:48:53;13.20;99.90
13697;DHT22;6920;50.080;8.226;2022-10-31T07:53:52;13.30;99.90
13697;DHT22;6920;50.080;8.226;2022-10-31T07:56:21;13.40;99.90
13697;DHT22;6920;50.080;8.226;2022-10-31T07:58:57;13.60;99.90
13697;DHT22;6920;50.080;8.226;2022-10-31T08:01:26;13.70;99.90
13697;DHT22;6920;50.080;8.226;2022-10-31T08:03:53;13.80;99.90
13697;DHT22;6920;50.080;8.226;2022-10-31T08:06:24;13.90;99.90
13697;DHT22;6920;50.080;8.226;2022-10-31T08:09:15;14.00;99.90
13697;DHT22;6920;50.080;8.226;2022-10-31T08:12:00;14.10;99.90
13697;DHT22;6920;50.080;8.226;2022-10-31T08:14:30;14.20;99.90
13697;DHT22;6920;50.080;8.226;2022-10-31T08:16:57;14.20;99.90
13697;DHT22;6920;50.080;8.226;2022-10-31T08:19:25;14.20;99.90
13697;DHT22;6920;50.080;8.226;2022-10-31T08:21:54;14.30;99.90
13697;DHT22;6920;50.080;8.226;2022-10-31T08:24:21;14.40;99.90
13697;DHT22;6920;50.080;8.226;2022-10-31T08:26:50;14.50;99.90
13697;DHT22;6920;50.080;8.226;2022-10-31T08:29:17;14.70;99.90
13697;DHT22;6920;50.080;8.226;2022-10-31T08:31:48;14.80;99.90
13697;DHT22;6920;50.080;8.226;2022-10-31T08:34:15;14.90;99.90
13697;DHT22;6920;50.080;8.226;2022-10-31T08:36:44;15.00;99.90
13697;DHT22;6920;50.080;8.226;2022-10-31T08:41:39;15.20;99.90
13697;DHT22;6920;50.080;8.226;2022-10-31T08:44:06;15.20;99.90
13697;DHT22;6920;50.080;8.226;2022-10-31T08:46:33;15.20;99.90
13697;DHT22;6920;50.080;8.226;2022-10-31T08:49:03;15.40;99.90
13697;DHT22;6920;50.080;8.226;2022-10-31T08:51:30;15.30;99.90
13697;DHT22;6920;50.080;8.226;2022-10-31T08:53:57;15.50;99.90
13697;DHT22;6920;50.080;8.226;2022-10-31T08:56:24;15.40;99.90
13697;DHT22;6920;50.080;8.226;2022-10-31T09:04:36;15.50;99.90
13697;DHT22;6920;50.080;8.226;2022-10-31T09:07:04;15.80;99.90
13697;DHT22;6920;50.080;8.226;2022-10-31T09:09:31;15.70;99.90
13697;DHT22;6920;50.080;8.226;2022-10-31T09:11:59;15.80;99.90
13697;DHT22;6920;50.080;8.226;2022-10-31T09:14:26;15.90;99.90
13697;DHT22;6920;50.080;8.226;2022-10-31T09:16:54;15.80;99.90
13697;DHT22;6920;50.080;8.226;2022-10-31T09:19:21;15.90;99.90
13697;DHT22;6920;50.080;8.226;2022-10-31T09:21:53;18.00;99.90
13697;DHT22;6920;50.080;8.226;2022-10-31T09:24:22;16.00;99.90
13697;DHT22;6920;50.080;8.226;2022-10-31T09:26:50;16.00;99.90
13697;DHT22;6920;50.080;8.226;2022-10-31T09:29:18;16.00;99.90
13697;DHT22;6920;50.080;8.226;2022-10-31T09:31:46;16.00;99.90
13697;DHT22;6920;50.080;8.226;2022-10-31T09:34:14;16.00;99.90
13697;DHT22;6920;50.080;8.226;2022-10-31T09:36:42;16.00;99.90
13697;DHT22;6920;50.080;8.226;2022-10-31T09:39:13;16.10;99.90
13697;DHT22;6920;50.080;8.226;2022-10-31T09:44:59;16.10;99.90
13697;DHT22;6920;50.080;8.226;2022-10-31T09:47:40;16.10;99.90
13697;DHT22;6920;50.080;8.226;2022-10-31T09:50:18;16.10;99.90
13697;DHT22;6920;50.080;8.226;2022-10-31T09:52:57;16.10;99.90
13697;DHT22;6920;50.080;8.226;2022-10-31T09:55:45;16.10;99.90
13697;DHT22;6920;50.080;8.226;2022-10-31T09:58:23;16.30;99.90
13697;DHT22;6920;50.080;8.226;2022-10-31T10:01:11;16.40;99.90
13697;DHT22;6920;50.080;8.226;2022-10-31T10:03:47;16.50;99.90
13697;DHT22;6920;50.080;8.226;2022-10-31T10:06:35;16.60;99.90
13697;DHT22;6920;50.080;8.226;2022-10-31T10:09:04;16.70;99.90
13697;DHT22;6920;50.080;8.226;2022-10-31T10:11:46;16.70;99.90
13697;DHT22;6920;50.080;8.226;2022-10-31T10:14:34;16.80;99.90
13697;DHT22;6920;50.080;8.226;2022-10-31T10:17:36;17.00;99.90
13697;DHT22;6920;50.080;8.226;2022-10-31T10:20:16;17.00;99.90
13697;DHT22;6920;50.080;8.226;2022-10-31T10:22:59;17.20;99.90
13697;DHT22;6920;50.080;8.226;2022-10-31T10:25:38;17.30;99.90
13697;DHT22;6920;50.080;8.226;2022-10-31T10:28:22;17.40;99.90
13697;DHT22;6920;50.080;8.226;2022-10-31T10:30:54;17.40;99.90
13697;DHT22;6920;50.080;8.226;2022-10-31T10:33:33;17.40;99.90
13697;DHT22;6920;50.080;8.226;2022-10-31T10:36:05;17.40;99.90
13697;DHT22;6920;50.080;8.226;2022-10-31T10:38:44;17.40;99.90
13697;DHT22;6920;50.080;8.226;2022-10-31T10:41:17;17.40;99.90
13697;DHT22;6920;50.080;8.226;2022-10-31T10:43:50;17.30;99.90
13697;DHT22;6920;50.080;8.226;2022-10-31T10:46:19;17.40;99.90
13697;DHT22;6920;50.080;8.226;2022-10-31T10:49:12;17.40;99.90
13697;DHT22;6920;50.080;8.226;2022-10-31T10:51:51;17.90;99.90
13697;DHT22;6920;50.080;8.226;2022-10-31T10:54:58;17.80;99.90
13697;DHT22;6920;50.080;8.226;2022-10-31T10:57:52;17.90;99.90
13697;DHT22;6920;50.080;8.226;2022-10-31T11:00:30;18.30;99.90
13697;DHT22;6920;50.080;8.226;2022-10-31T11:05:33;18.40;99.90
13697;DHT22;6920;50.080;8.226;2022-10-31T11:08:09;18.50;99.90
13697;DHT22;6920;50.080;8.226;2022-10-31T11:10:37;18.40;99.90
13697;DHT22;6920;50.080;8.226;2022-10-31T11:13:21;18.50;99.90
13697;DHT22;6920;50.080;8.226;2022-10-31T11:16:00;18.50;99.90
13697;DHT22;6920;50.080;8.226;2022-10-31T11:18:30;18.40;99.90
13697;DHT22;6920;50.080;8.226;2022-10-31T11:21:01;18.70;99.90
13697;DHT22;6920;50.080;8.226;2022-10-31T11:23:30;18.70;99.90
13697;DHT22;6920;50.080;8.226;2022-10-31T11:26:03;18.80;99.90
13697;DHT22;6920;50.080;8.226;2022-10-31T11:28:33;18.60;99.90
13697;DHT22;6920;50.080;8.226;2022-10-31T11:31:12;18.60;99.90
13697;DHT22;6920;50.080;8.226;2022-10-31T11:33:49;18.70;99.90
13697;DHT22;6920;50.080;8.226;2022-10-31T11:36:24;18.70;99.90
13697;DHT22;6920;50.080;8.226;2022-10-31T11:38:55;18.40;99.90
13697;DHT22;6920;50.080;8.226;2022-10-31T11:41:26;18.40;99.90
13697;DHT22;6920;50.080;8.226;2022-10-31T11:43:57;18.90;99.90
13697;DHT22;6920;50.080;8.226;2022-10-31T11:46:32;19.00;99.90
13697;DHT22;6920;50.080;8.226;2022-10-31T11:49:06;19.00;99.90
13697;DHT22;6920;50.080;8.226;2022-10-31T11:51:41;19.00;99.90
13697;DHT22;6920;50.080;8.226;2022-10-31T11:54:20;19.10;99.90
13697;DHT22;6920;50.080;8.226;2022-10-31T11:56:52;19.20;99.90
13697;DHT22;6920;50.080;8.226;2022-10-31T11:59:31;19.20;99.90
13697;DHT22;6920;50.080;8.226;2022-10-31T12:02:14;19.20;99.90
13697;DHT22;6920;50.080;8.226;2022-10-31T12:04:50;19.40;99.90
13697;DHT22;6920;50.080;8.226;2022-10-31T12:07:22;19.60;99.90
13697;DHT22;6920;50.080;8.226;2022-10-31T12:09:58;19.80;99.90
13697;DHT22;6920;50.080;8.226;2022-10-31T12:12:55;19.90;99.90
13697;DHT22;6920;50.080;8.226;2022-10-31T12:15:53;19.80;99.90
13697;DHT22;6920;50.080;8.226;2022-10-31T12:18:40;19.80;99.90
13697;DHT22;6920;50.080;8.226;2022-10-31T12:28:06;19.60;99.90
13697;DHT22;6920;50.080;8.226;2022-10-31T12:31:07;19.60;99.90
13697;DHT22;6920;50.080;8.226;2022-10-31T12:34:02;19.50;99.90
13697;DHT22;6920;50.080;8.226;2022-10-31T12:36:57;19.50;99.90
13697;DHT22;6920;50.080;8.226;2022-10-31T12:39:39;19.50;99.90
13697;DHT22;6920;50.080;8.226;2022-10-31T12:42:43;19.80;99.90
13697;DHT22;6920;50.080;8.226;2022-10-31T12:45:52;20.10;99.90
13697;DHT22;6920;50.080;8.226;2022-10-31T12:48:52;20.60;99.90
13697;DHT22;6920;50.080;8.226;2022-10-31T12:52:03;20.40;99.90
13697;DHT22;6920;50.080;8.226;2022-10-31T12:58:12;20.20;99.90
13697;DHT22;6920;50.080;8.226;2022-10-31T13:01:02;20.40;99.90
13697;DHT22;6920;50.080;8.226;2022-10-31T13:04:30;20.30;99.90
13697;DHT22;6920;50.080;8.226;2022-10-31T13:07:04;20.00;99.90
13697;DHT22;6920;50.080;8.226;2022-10-31T13:12:25;19.70;99.90
13697;DHT22;6920;50.080;8.226;2022-10-31T13:15:05;19.50;99.90
13697;DHT22;6920;50.080;8.226;2022-10-31T13:18:22;19.50;99.90
13697;DHT22;6920;50.080;8.226;2022-10-31T13:24:03;19.30;99.90
13697;DHT22;6920;50.080;8.226;2022-10-31T13:26:52;19.20;99.90
13697;DHT22;6920;50.080;8.226;2022-10-31T13:30:00;19.30;99.90
13697;DHT22;6920;50.080;8.226;2022-10-31T13:36:15;19.40;99.90
13697;DHT22;6920;50.080;8.226;2022-10-31T13:42:18;19.20;99.90
13697;DHT22;6920;50.080;8.226;2022-10-31T13:44:47;19.20;99.90
13697;DHT22;6920;50.080;8.226;2022-10-31T13:47:22;19.20;99.90
13697;DHT22;6920;50.080;8.226;2022-10-31T13:50:03;19.10;99.90
13697;DHT22;6920;50.080;8.226;2022-10-31T13:52:46;19.10;99.90
13697;DHT22;6920;50.080;8.226;2022-10-31T13:55:37;19.10;99.90
13697;DHT22;6920;50.080;8.226;2022-10-31T13:58:21;19.00;99.90
13697;DHT22;6920;50.080;8.226;2022-10-31T14:00:59;18.70;99.90
13697;DHT22;6920;50.080;8.226;2022-10-31T14:03:34;18.60;99.90
13697;DHT22;6920;50.080;8.226;2022-10-31T14:06:05;18.70;99.90
13697;DHT22;6920;50.080;8.226;2022-10-31T14:08:36;18.80;99.90
13697;DHT22;6920;50.080;8.226;2022-10-31T14:11:08;18.90;99.90
13697;DHT22;6920;50.080;8.226;2022-10-31T14:13:44;18.90;99.90
13697;DHT22;6920;50.080;8.226;2022-10-31T14:16:18;18.90;99.90
13697;DHT22;6920;50.080;8.226;2022-10-31T14:18:57;18.80;99.90
13697;DHT22;6920;50.080;8.226;2022-10-31T14:21:31;18.90;99.90
13697;DHT22;6920;50.080;8.226;2022-10-31T14:24:16;18.70;99.90
13697;DHT22;6920;50.080;8.226;2022-10-31T14:27:01;18.70;99.90
13697;DHT22;6920;50.080;8.226;2022-10-31T14:29:41;18.80;99.90
13697;DHT22;6920;50.080;8.226;2022-10-31T14:32:20;18.70;99.90
13697;DHT22;6920;50.080;8.226;2022-10-31T14:34:54;18.80;99.90
13697;DHT22;6920;50.080;8.226;2022-10-31T14:37:53;18.90;99.90
13697;DHT22;6920;50.080;8.226;2022-10-31T14:43:26;18.90;99.90
13697;DHT22;6920;50.080;8.226;2022-10-31T14:51:39;18.90;99.90
13697;DHT22;6920;50.080;8.226;2022-10-31T14:54:17;18.80;99.90
13697;DHT22;6920;50.080;8.226;2022-10-31T14:56:49;18.70;99.90
13697;DHT22;6920;50.080;8.226;2022-10-31T14:59:23;18.60;99.90
13697;DHT22;6920;50.080;8.226;2022-10-31T15:02:09;18.50;99.90
13697;DHT22;6920;50.080;8.226;2022-10-31T15:04:40;18.50;99.90
13697;DHT22;6920;50.080;8.226;2022-10-31T15:07:12;18.40;99.90
13697;DHT22;6920;50.080;8.226;2022-10-31T15:12:44;18.20;99.90
13697;DHT22;6920;50.080;8.226;2022-10-31T15:15:15;18.20;99.90
13697;DHT22;6920;50.080;8.226;2022-10-31T15:17:53;18.10;99.90
13697;DHT22;6920;50.080;8.226;2022-10-31T15:20:24;18.10;99.90
13697;DHT22;6920;50.080;8.226;2022-10-31T15:22:55;18.10;99.90
13697;DHT22;6920;50.080;8.226;2022-10-31T15:25:28;18.00;99.90
13697;DHT22;6920;50.080;8.226;2022-10-31T15:27:58;18.00;99.90
13697;DHT22;6920;50.080;8.226;2022-10-31T15:30:31;18.00;99.90
13697;DHT22;6920;50.080;8.226;2022-10-31T15:33:21;18.00;99.90
13697;DHT22;6920;50.080;8.226;2022-10-31T15:35:57;18.00;99.90
13697;DHT22;6920;50.080;8.226;2022-10-31T15:38:27;18.00;99.90
13697;DHT22;6920;50.080;8.226;2022-10-31T15:41:20;18.00;99.90
13697;DHT22;6920;50.080;8.226;2022-10-31T15:43:50;17.90;99.90
13697;DHT22;6920;50.080;8.226;2022-10-31T15:46:21;17.80;99.90
13697;DHT22;6920;50.080;8.226;2022-10-31T15:48:55;17.80;99.90
13697;DHT22;6920;50.080;8.226;2022-10-31T15:51:27;17.70;99.90
13697;DHT22;6920;50.080;8.226;2022-10-31T15:53:58;17.70;99.90
13697;DHT22;6920;50.080;8.226;2022-10-31T15:56:29;17.70;99.90
13697;DHT22;6920;50.080;8.226;2022-10-31T15:59:00;17.50;99.90
13697;DHT22;6920;50.080;8.226;2022-10-31T16:01:30;17.40;99.90
13697;DHT22;6920;50.080;8.226;2022-10-31T16:04:24;17.40;99.90
13697;DHT22;6920;50.080;8.226;2022-10-31T16:07:14;17.50;99.90
13697;DHT22;6920;50.080;8.226;2022-10-31T16:09:56;17.30;99.90
13697;DHT22;6920;50.080;8.226;2022-10-31T16:12:29;17.40;99.90
13697;DHT22;6920;50.080;8.226;2022-10-31T16:14:58;17.40;99.90
13697;DHT22;6920;50.080;8.226;2022-10-31T16:17:27;17.20;99.90
13697;DHT22;6920;50.080;8.226;2022-10-31T16:20:00;17.20;99.90
13697;DHT22;6920;50.080;8.226;2022-10-31T16:22:31;17.20;99.90
13697;DHT22;6920;50.080;8.226;2022-10-31T16:25:17;17.10;99.90
13697;DHT22;6920;50.080;8.226;2022-10-31T16:27:52;17.10;99.90
13697;DHT22;6920;50.080;8.226;2022-10-31T16:30:38;17.00;99.90
13697;DHT22;6920;50.080;8.226;2022-10-31T16:33:27;16.90;99.90
13697;DHT22;6920;50.080;8.226;2022-10-31T16:39:11;16.60;99.90
13697;DHT22;6920;50.080;8.226;2022-10-31T16:41:43;16.60;99.90
13697;DHT22;6920;50.080;8.226;2022-10-31T16:44:33;16.60;99.90
13697;DHT22;6920;50.080;8.226;2022-10-31T16:47:18;16.50;99.90
13697;DHT22;6920;50.080;8.226;2022-10-31T16:52:29;16.50;99.90
13697;DHT22;6920;50.080;8.226;2022-10-31T16:58:21;16.30;99.90
13697;DHT22;6920;50.080;8.226;2022-10-31T17:03:22;16.10;99.90
13697;DHT22;6920;50.080;8.226;2022-10-31T17:08:23;16.00;99.90
13697;DHT22;6920;50.080;8.226;2022-10-31T17:10:57;15.60;99.90
13697;DHT22;6920;50.080;8.226;2022-10-31T17:13:36;15.80;99.90
13697;DHT22;6920;50.080;8.226;2022-10-31T17:16:13;15.80;99.90
13697;DHT22;6920;50.080;8.226;2022-10-31T17:18:42;15.80;99.90
13697;DHT22;6920;50.080;8.226;2022-10-31T17:23:59;15.90;99.90
13697;DHT22;6920;50.080;8.226;2022-10-31T17:31:49;15.80;99.90
13697;DHT22;6920;50.080;8.226;2022-10-31T17:34:22;15.60;99.90
13697;DHT22;6920;50.080;8.226;2022-10-31T17:36:51;15.60;99.90
13697;DHT22;6920;50.080;8.226;2022-10-31T17:44:37;15.40;99.90
13697;DHT22;6920;50.080;8.226;2022-10-31T17:52:18;15.20;99.90
13697;DHT22;6920;50.080;8.226;2022-10-31T18:02:23;14.80;99.90
13697;DHT22;6920;50.080;8.226;2022-10-31T18:07:22;14.70;99.90
13697;DHT22;6920;50.080;8.226;2022-10-31T18:12:20;14.70;99.90
13697;DHT22;6920;50.080;8.226;2022-10-31T18:22:37;14.50;99.90
13697;DHT22;6920;50.080;8.226;2022-10-31T18:37:43;14.20;99.90
13697;DHT22;6920;50.080;8.226;2022-10-31T18:42:44;14.10;99.90
13697;DHT22;6920;50.080;8.226;2022-10-31T18:52:51;13.80;99.90
13697;DHT22;6920;50.080;8.226;2022-10-31T18:57:49;13.70;99.90
13697;DHT22;6920;50.080;8.226;2022-10-31T19:10:24;13.70;99.90
13697;DHT22;6920;50.080;8.226;2022-10-31T19:12:53;13.80;99.90
13697;DHT22;6920;50.080;8.226;2022-10-31T19:23:02;13.70;99.90
13697;DHT22;6920;50.080;8.226;2022-10-31T19:33:02;13.50;99.90
13697;DHT22;6920;50.080;8.226;2022-10-31T19:40:46;13.60;99.90
13697;DHT22;6920;50.080;8.226;2022-10-31T19:53:32;13.60;99.90